createdAt,value
2018-10-11T00:00:02.120Z,71.80
2018-10-11T00:02:37.152Z,70.24
2018-10-11T00:05:11.790Z,70.41
2018-10-11T00:07:49.409Z,70.91
2018-10-11T00:10:24.869Z,71.60
2018-10-11T00:12:59.751Z,74.04
2018-10-11T00:15:34.479Z,75.64
2018-10-11T00:18:09.350Z,76.18
2018-10-11T00:20:44.281Z,76.50
2018-10-11T00:23:19.543Z,76.25
2018-10-11T00:25:54.377Z,78.30
2018-10-11T00:28:29.341Z,78.25
2018-10-11T00:31:04.505Z,77.66
2018-10-11T00:33:39.542Z,76.46
2018-10-11T00:36:14.558Z,77.62
2018-10-11T00:38:49.264Z,75.40
2018-10-11T00:41:24.182Z,76.04
2018-10-11T00:43:59.143Z,74.15
2018-10-11T00:46:33.915Z,73.40
2018-10-11T00:49:08.897Z,73.15
2018-10-11T00:51:43.769Z,73.49
2018-10-11T00:54:18.949Z,73.02
2018-10-11T00:56:53.815Z,72.44
2018-10-11T00:59:28.815Z,73.94
2018-10-11T01:02:04.031Z,72.19
2018-10-11T01:04:38.956Z,75.91
2018-10-11T01:07:13.712Z,78.08
2018-10-11T01:09:49.290Z,78.69
2018-10-11T01:12:24.278Z,79.30
2018-10-11T01:14:59.073Z,77.60
2018-10-11T01:17:33.799Z,77.78
2018-10-11T01:20:08.611Z,77.56
2018-10-11T01:22:43.945Z,78.01
2018-10-11T01:25:18.809Z,78.36
2018-10-11T01:27:53.708Z,77.61
2018-10-11T01:30:28.415Z,77.11
2018-10-11T01:33:03.173Z,78.45
2018-10-11T01:35:38.201Z,78.58
2018-10-11T01:38:12.947Z,78.44
2018-10-11T01:40:48.126Z,76.91
2018-10-11T01:43:22.888Z,76.59
2018-10-11T01:45:57.729Z,75.08
2018-10-11T01:48:32.992Z,76.21
2018-10-11T01:51:07.834Z,77.38
2018-10-11T01:53:42.646Z,77.27
2018-10-11T01:56:17.424Z,75.98
2018-10-11T01:58:52.277Z,76.17
2018-10-11T02:01:27.084Z,76.91
2018-10-11T02:04:02.003Z,77.75
2018-10-11T02:06:36.742Z,78.04
2018-10-11T02:09:11.597Z,76.94
2018-10-11T02:11:46.714Z,76.42
2018-10-11T02:14:21.532Z,77.75
2018-10-11T02:16:56.271Z,78.90
2018-10-11T02:19:30.956Z,75.72
2018-10-11T02:22:05.732Z,76.04
2018-10-11T02:24:40.642Z,77.74
2018-10-11T02:27:15.444Z,77.39
2018-10-11T02:29:50.345Z,78.29
2018-10-11T02:32:25.402Z,80.13
2018-10-11T02:35:00.096Z,81.94
2018-10-11T02:37:34.803Z,83.19
2018-10-11T02:40:09.656Z,84.38
2018-10-11T02:42:44.655Z,83.45
2018-10-11T02:45:19.625Z,81.94
2018-10-11T02:47:54.335Z,81.15
2018-10-11T02:50:29.216Z,79.13
2018-10-11T02:53:03.954Z,80.13
2018-10-11T02:55:38.968Z,81.51
2018-10-11T02:58:19.408Z,79.81
2018-10-11T03:00:54.396Z,76.92
2018-10-11T03:03:29.673Z,77.97
2018-10-11T03:06:04.681Z,78.81
2018-10-11T03:08:39.537Z,79.65
2018-10-11T03:11:14.545Z,81.70
2018-10-11T03:13:49.511Z,81.78
2018-10-11T03:16:24.287Z,81.69
2018-10-11T03:18:59.177Z,80.60
2018-10-11T03:21:34.039Z,80.33
2018-10-11T03:24:08.944Z,80.32
2018-10-11T03:26:44.023Z,78.88
2018-10-11T03:29:19.009Z,77.48
2018-10-11T03:31:53.953Z,76.24
2018-10-11T03:34:29.759Z,75.84
2018-10-11T03:37:04.529Z,76.06
2018-10-11T03:39:39.253Z,76.41
2018-10-11T03:42:14.134Z,77.92
2018-10-11T03:44:48.999Z,78.53
2018-10-11T03:47:23.887Z,77.65
2018-10-11T03:49:58.697Z,79.46
2018-10-11T03:52:33.676Z,78.42
2018-10-11T03:55:08.680Z,79.40
2018-10-11T03:57:43.849Z,81.45
2018-10-11T04:00:18.790Z,82.72
2018-10-11T04:02:53.623Z,84.44
2018-10-11T04:05:28.627Z,84.68
2018-10-11T04:08:03.545Z,86.06
2018-10-11T04:10:38.372Z,86.43
2018-10-11T04:13:13.805Z,85.85
2018-10-11T04:15:48.740Z,86.28
2018-10-11T04:18:23.593Z,87.17
2018-10-11T04:20:58.288Z,83.15
2018-10-11T04:23:33.064Z,84.63
2018-10-11T04:26:07.888Z,85.29
2018-10-11T04:28:42.773Z,85.63
2018-10-11T04:31:17.581Z,85.45
2018-10-11T04:33:52.488Z,83.55
2018-10-11T04:36:27.208Z,81.52
2018-10-11T04:39:02.089Z,80.72
2018-10-11T04:41:36.815Z,79.86
2018-10-11T04:44:11.590Z,79.54
2018-10-11T04:46:46.607Z,79.83
2018-10-11T04:49:21.376Z,79.97
2018-10-11T04:51:56.293Z,81.48
2018-10-11T04:54:31.019Z,82.00
2018-10-11T04:57:05.853Z,80.67
2018-10-11T04:59:40.983Z,81.13
2018-10-11T05:02:16.235Z,81.73
2018-10-11T05:04:51.292Z,82.50
2018-10-11T05:07:26.581Z,83.57
2018-10-11T05:10:01.376Z,83.56
2018-10-11T05:12:36.296Z,83.26
2018-10-11T05:15:11.256Z,82.97
2018-10-11T05:17:46.633Z,82.55
2018-10-11T05:20:21.905Z,80.07
2018-10-11T05:22:56.802Z,79.88
2018-10-11T05:25:31.755Z,78.43
2018-10-11T05:28:06.582Z,77.38
2018-10-11T05:30:43.330Z,76.82
2018-10-11T05:33:18.320Z,77.69
2018-10-11T05:35:53.417Z,78.63
2018-10-11T05:38:28.318Z,78.66
2018-10-11T05:41:03.232Z,78.39
2018-10-11T05:43:38.330Z,77.35
2018-10-11T05:46:14.225Z,75.24
2018-10-11T05:48:49.243Z,74.22
2018-10-11T05:51:24.045Z,73.06
2018-10-11T05:53:59.671Z,70.92
2018-10-11T05:56:35.512Z,69.62
2018-10-11T05:59:11.222Z,69.02
2018-10-11T06:01:46.055Z,70.06
2018-10-11T06:04:21.299Z,69.94
2018-10-11T06:06:56.544Z,67.74
2018-10-11T06:09:31.492Z,66.83
2018-10-11T06:12:06.311Z,66.38
2018-10-11T06:14:41.538Z,68.29
2018-10-11T06:17:16.311Z,67.90
2018-10-11T06:19:51.556Z,67.54
2018-10-11T06:22:26.508Z,68.94
2018-10-11T06:25:01.537Z,67.41
2018-10-11T06:27:36.563Z,66.53
2018-10-11T06:30:13.161Z,67.60
2018-10-11T06:32:48.325Z,67.31
2018-10-11T06:35:23.773Z,67.23
2018-10-11T06:37:59.215Z,67.47
2018-10-11T06:40:34.485Z,66.26
2018-10-11T06:43:09.466Z,64.92
2018-10-11T06:45:44.640Z,64.12
2018-10-11T06:48:19.379Z,63.54
2018-10-11T06:50:57.017Z,63.30
2018-10-11T06:53:32.026Z,62.95
2018-10-11T06:56:07.173Z,61.94
2018-10-11T06:58:42.227Z,63.17
2018-10-11T07:01:17.068Z,61.66
2018-10-11T07:03:51.924Z,60.63
2018-10-11T07:06:22.642Z,59.49
2018-10-11T07:08:53.490Z,58.96
2018-10-11T07:11:24.369Z,58.89
2018-10-11T07:13:55.179Z,58.87
2018-10-11T07:16:26.324Z,57.83
2018-10-11T07:18:57.064Z,56.78
2018-10-11T07:21:28.063Z,56.87
2018-10-11T07:23:58.836Z,55.91
2018-10-11T07:26:29.615Z,54.75
2018-10-11T07:29:00.464Z,54.17
2018-10-11T07:32:55.658Z,55.16
2018-10-11T07:35:26.604Z,55.03
2018-10-11T07:37:57.608Z,54.02
2018-10-11T07:40:28.451Z,53.32
2018-10-11T07:42:59.538Z,53.01
2018-10-11T07:45:30.338Z,51.52
2018-10-11T07:48:01.254Z,52.22
2018-10-11T07:50:32.077Z,51.74
2018-10-11T07:53:02.944Z,51.33
2018-10-11T07:55:33.764Z,50.89
2018-10-11T07:58:04.574Z,49.99
2018-10-11T08:00:35.367Z,50.29
2018-10-11T08:03:06.168Z,49.46
2018-10-11T08:05:37.053Z,49.59
2018-10-11T08:08:08.040Z,49.22
2018-10-11T08:10:40.368Z,49.05
2018-10-11T08:13:12.399Z,49.05
2018-10-11T08:15:43.196Z,48.85
2018-10-11T08:18:13.984Z,48.86
2018-10-11T08:20:44.736Z,48.57
2018-10-11T08:23:18.926Z,48.22
2018-10-11T08:25:49.939Z,48.44
2018-10-11T08:28:21.167Z,47.19
2018-10-11T08:30:51.923Z,47.80
2018-10-11T08:33:23.227Z,47.15
2018-10-11T08:35:53.982Z,46.68
2018-10-11T08:38:24.931Z,46.46
2018-10-11T08:40:55.944Z,45.95
2018-10-11T08:43:27.146Z,44.87
2018-10-11T08:45:58.132Z,45.17
2018-10-11T08:48:28.915Z,44.89
2018-10-11T08:51:00.069Z,44.36
2018-10-11T08:53:31.065Z,45.15
2018-10-11T08:56:01.959Z,45.10
2018-10-11T08:58:32.932Z,44.44
2018-10-11T09:01:03.857Z,42.84
2018-10-11T09:03:34.955Z,43.51
2018-10-11T09:06:06.462Z,43.92
2018-10-11T09:08:37.322Z,43.40
2018-10-11T09:11:08.133Z,42.51
2018-10-11T09:13:39.213Z,41.89
2018-10-11T09:16:10.044Z,41.05
2018-10-11T09:18:40.825Z,43.15
2018-10-11T09:21:11.657Z,41.26
2018-10-11T09:23:42.667Z,41.62
2018-10-11T09:26:13.552Z,40.54
2018-10-11T09:28:44.365Z,40.31
2018-10-11T09:31:15.127Z,40.22
2018-10-11T09:33:45.958Z,40.42
2018-10-11T09:36:16.793Z,38.86
2018-10-11T09:38:47.969Z,38.79
2018-10-11T09:41:18.801Z,38.82
2018-10-11T09:43:49.638Z,37.65
2018-10-11T09:46:20.503Z,38.79
2018-10-11T09:48:51.456Z,37.54
2018-10-11T09:51:22.553Z,36.57
2018-10-11T09:53:53.449Z,36.46
2018-10-11T09:57:31.562Z,36.28
2018-10-11T10:00:03.645Z,35.46
2018-10-11T10:02:34.421Z,33.96
2018-10-11T10:05:05.317Z,33.84
2018-10-11T10:07:36.112Z,33.72
2018-10-11T10:10:07.443Z,33.66
2018-10-11T10:12:38.292Z,33.60
2018-10-11T10:15:09.221Z,32.64
2018-10-11T10:17:39.992Z,32.89
2018-10-11T10:20:10.909Z,31.65
2018-10-11T10:22:41.733Z,31.62
2018-10-11T10:25:12.658Z,31.64
2018-10-11T10:27:43.416Z,30.84
2018-10-11T10:30:19.339Z,30.68
2018-10-11T10:32:50.168Z,30.68
2018-10-11T10:35:21.025Z,31.33
2018-10-11T10:37:51.824Z,31.50
2018-10-11T10:40:22.667Z,30.55
2018-10-11T10:42:53.425Z,31.52
2018-10-11T10:45:24.274Z,29.70
2018-10-11T10:47:57.692Z,30.68
2018-10-11T10:50:28.552Z,30.63
2018-10-11T10:52:59.325Z,29.98
2018-10-11T11:02:32.898Z,29.83
2018-10-11T11:05:03.690Z,28.38
2018-10-11T11:07:34.606Z,30.96
2018-10-11T11:10:05.745Z,28.50
2018-10-11T11:12:36.677Z,28.54
2018-10-11T11:15:07.473Z,29.84
2018-10-11T11:17:38.305Z,28.74
2018-10-11T11:20:09.113Z,31.05
2018-10-11T11:22:39.912Z,31.10
2018-10-11T11:25:10.698Z,30.18
2018-10-11T11:27:41.974Z,30.89
2018-10-11T11:30:12.762Z,31.19
2018-10-11T11:32:43.645Z,30.44
2018-10-11T11:35:14.420Z,30.65
2018-10-11T11:37:45.213Z,31.91
2018-10-11T11:40:16.043Z,31.25
2018-10-11T11:42:46.941Z,32.98
2018-10-11T11:45:17.769Z,34.66
2018-10-11T11:47:48.652Z,33.95
2018-10-11T11:50:22.826Z,34.08
2018-10-11T11:52:53.955Z,33.87
2018-10-11T11:55:24.736Z,35.11
2018-10-11T11:57:55.610Z,35.62
2018-10-11T12:00:27.475Z,34.04
2018-10-11T12:03:00.178Z,35.96
2018-10-11T12:05:31.496Z,37.02
2018-10-11T12:08:02.372Z,37.97
2018-10-11T12:10:33.204Z,39.72
2018-10-11T12:13:09.341Z,40.08
2018-10-11T12:15:41.291Z,39.94
2018-10-11T12:18:12.401Z,39.36
2018-10-11T12:20:43.518Z,39.32
2018-10-11T12:23:14.469Z,39.62
2018-10-11T12:25:45.263Z,40.13
2018-10-11T12:28:22.207Z,40.44
2018-10-11T12:30:53.141Z,41.65
2018-10-11T12:33:23.985Z,41.91
2018-10-11T12:35:55.098Z,42.44
2018-10-11T12:38:25.935Z,42.30
2018-10-11T12:40:56.687Z,41.68
2018-10-11T12:43:27.566Z,42.87
2018-10-11T12:45:58.415Z,41.65
2018-10-11T12:48:29.209Z,42.37
2018-10-11T12:51:00.045Z,42.20
2018-10-11T12:53:30.944Z,41.64
2018-10-11T12:56:02.112Z,41.82
2018-10-11T12:58:32.941Z,42.26
2018-10-11T13:01:03.910Z,41.92
2018-10-11T13:03:35.204Z,41.76
2018-10-11T13:06:06.435Z,42.54
2018-10-11T13:08:37.279Z,43.09
2018-10-11T13:11:08.161Z,42.97
2018-10-11T13:13:39.840Z,43.00
2018-10-11T13:16:10.253Z,43.19
2018-10-11T13:18:41.045Z,43.37
2018-10-11T13:21:12.113Z,44.11
2018-10-11T13:23:42.993Z,43.61
2018-10-11T13:26:13.756Z,43.23
2018-10-11T13:28:44.945Z,44.11
2018-10-11T13:31:16.149Z,44.39
2018-10-11T13:33:47.621Z,43.31
2018-10-11T13:36:17.973Z,43.57
2018-10-11T13:38:48.805Z,44.75
2018-10-11T13:41:19.750Z,44.56
2018-10-11T13:43:51.145Z,45.01
2018-10-11T13:46:22.009Z,45.45
2018-10-11T13:48:52.836Z,43.92
2018-10-11T13:51:23.662Z,44.05
2018-10-11T13:53:58.397Z,44.75
2018-10-11T13:56:26.043Z,44.66
2018-10-11T13:58:56.999Z,45.37
2018-10-11T14:01:27.913Z,45.41
2018-10-11T14:03:58.732Z,45.67
2018-10-11T14:06:29.554Z,45.57
2018-10-11T14:09:00.437Z,45.05
2018-10-11T14:11:31.197Z,43.97
2018-10-11T14:14:02.156Z,44.12
2018-10-11T14:16:33.371Z,43.52
2018-10-11T14:19:04.326Z,43.73
2018-10-11T14:21:35.104Z,43.46
2018-10-11T14:24:06.031Z,43.09
2018-10-11T14:26:37.052Z,43.21
2018-10-11T14:29:07.990Z,43.12
2018-10-11T14:31:38.739Z,43.78
2018-10-11T14:34:09.989Z,44.86
2018-10-11T14:36:40.763Z,45.09
2018-10-11T14:39:11.739Z,44.82
2018-10-11T14:41:43.106Z,45.59
2018-10-11T14:44:13.978Z,46.74
2018-10-11T14:46:44.821Z,46.09
2018-10-11T14:49:15.702Z,45.98
2018-10-11T14:51:48.723Z,47.14
2018-10-11T14:54:17.576Z,46.27
2018-10-11T14:56:48.377Z,46.34
2018-10-11T14:59:19.290Z,45.89
2018-10-11T15:01:50.320Z,46.22
2018-10-11T15:04:21.136Z,46.41
2018-10-11T15:06:51.870Z,46.81
2018-10-11T15:09:22.714Z,46.13
2018-10-11T15:11:53.552Z,46.14
2018-10-11T15:14:25.001Z,46.52
2018-10-11T15:16:56.300Z,49.01
2018-10-11T15:19:27.366Z,46.97
2018-10-11T15:21:58.150Z,46.79
2018-10-11T15:24:29.028Z,46.89
2018-10-11T15:26:59.850Z,48.98
2018-10-11T15:29:31.150Z,48.84
2018-10-11T15:32:02.213Z,49.57
2018-10-11T15:34:33.053Z,48.21
2018-10-11T15:37:03.857Z,48.06
2018-10-11T15:39:34.741Z,48.14
2018-10-11T15:42:05.505Z,47.66
2018-10-11T15:44:36.387Z,49.85
2018-10-11T15:47:07.245Z,46.49
2018-10-11T15:49:38.077Z,47.26
2018-10-11T15:52:09.194Z,46.86
2018-10-11T15:54:40.234Z,47.95
2018-10-11T15:57:11.606Z,49.46
2018-10-11T15:59:42.658Z,47.96
2018-10-11T16:02:13.434Z,47.95
2018-10-11T16:04:44.225Z,48.16
2018-10-11T16:07:15.026Z,48.82
2018-10-11T16:09:45.893Z,49.28
2018-10-11T16:12:16.670Z,51.30
2018-10-11T16:14:47.513Z,49.66
2018-10-11T16:17:18.362Z,49.63
2018-10-11T16:19:49.157Z,49.79
2018-10-11T16:22:20.168Z,49.82
2018-10-11T16:24:51.139Z,49.81
2018-10-11T16:27:23.033Z,49.30
2018-10-11T16:29:54.014Z,48.65
2018-10-11T16:32:24.807Z,49.12
2018-10-11T16:34:55.659Z,48.46
2018-10-11T16:37:26.520Z,49.59
2018-10-11T16:39:57.381Z,49.31
2018-10-11T16:42:28.167Z,49.46
2018-10-11T16:44:59.091Z,50.04
2018-10-11T16:47:29.875Z,50.96
2018-10-11T16:50:00.662Z,49.79
2018-10-11T16:52:31.476Z,50.22
2018-10-11T16:55:02.246Z,51.28
2018-10-11T16:57:33.067Z,51.11
2018-10-11T17:00:03.969Z,53.51
2018-10-11T17:02:34.739Z,52.18
2018-10-11T17:05:05.612Z,52.09
2018-10-11T17:07:36.412Z,52.19
2018-10-11T17:10:07.963Z,51.97
2018-10-11T17:12:38.821Z,51.40
2018-10-11T17:15:10.013Z,54.67
2018-10-11T17:17:41.305Z,54.56
2018-10-11T17:20:12.160Z,54.40
2018-10-11T17:22:42.961Z,56.81
2018-10-11T17:25:13.825Z,55.61
2018-10-11T17:27:45.090Z,53.70
2018-10-11T17:30:16.186Z,53.48
2018-10-11T17:32:49.649Z,55.97
2018-10-11T17:35:20.574Z,57.24
2018-10-11T17:37:51.625Z,56.80
2018-10-11T17:40:23.615Z,55.18
2018-10-11T17:42:54.501Z,57.37
2018-10-11T17:45:25.463Z,55.71
2018-10-11T17:47:56.271Z,56.12
2018-10-11T17:50:27.219Z,55.88
2018-10-11T17:52:59.303Z,53.98
2018-10-11T17:55:30.778Z,53.54
2018-10-11T17:58:01.618Z,53.52
2018-10-11T18:00:32.641Z,56.66
2018-10-11T18:03:03.489Z,54.94
2018-10-11T18:05:34.721Z,55.95
2018-10-11T18:08:06.092Z,55.52
2018-10-11T18:10:37.197Z,55.37
2018-10-11T18:13:08.053Z,55.32
2018-10-11T18:15:39.499Z,56.11
2018-10-11T18:18:12.984Z,56.46
2018-10-11T18:20:43.869Z,57.14
2018-10-11T18:23:14.650Z,58.74
2018-10-11T18:25:45.629Z,57.26
2018-10-11T18:28:16.437Z,56.98
2018-10-11T18:30:47.797Z,56.24
2018-10-11T18:33:18.753Z,56.05
2018-10-11T18:35:49.727Z,56.32
2018-10-11T18:38:20.804Z,56.48
2018-10-11T18:40:51.906Z,59.20
2018-10-11T18:43:22.777Z,59.73
2018-10-11T18:45:54.155Z,58.29
2018-10-11T18:48:25.814Z,58.68
2018-10-11T18:50:57.338Z,57.27
2018-10-11T18:53:29.265Z,57.83
2018-10-11T18:56:00.135Z,58.07
2018-10-11T18:58:31.059Z,57.87
2018-10-11T19:01:02.166Z,58.76
2018-10-11T19:03:33.584Z,57.26
2018-10-11T19:06:04.733Z,58.26
2018-10-11T19:08:37.134Z,58.17
2018-10-11T19:11:08.334Z,57.94
2018-10-11T19:13:39.223Z,59.67
2018-10-11T19:16:10.361Z,59.23
2018-10-11T19:18:41.925Z,60.72
2018-10-11T19:21:12.833Z,59.05
2018-10-11T19:23:44.007Z,60.41
2018-10-11T19:26:15.710Z,58.96
2018-10-11T19:28:47.160Z,59.27
2018-10-11T19:31:18.461Z,60.48
2018-10-11T19:33:49.718Z,59.47
2018-10-11T19:36:21.074Z,58.82
2018-10-11T19:38:52.388Z,59.15
2018-10-11T19:41:24.730Z,59.76
2018-10-11T19:43:58.145Z,60.48
2018-10-11T19:46:31.101Z,59.92
2018-10-11T19:49:01.951Z,60.99
2018-10-11T19:51:32.824Z,63.79
2018-10-11T19:54:03.683Z,63.42
2018-10-11T19:56:34.469Z,61.86
2018-10-11T19:59:10.313Z,62.77
2018-10-11T20:01:46.242Z,63.37
2018-10-11T20:04:22.110Z,64.47
2018-10-11T20:06:57.963Z,64.91
2018-10-11T20:09:33.786Z,63.62
2018-10-11T20:12:10.346Z,63.02
2018-10-11T20:14:46.085Z,65.45
2018-10-11T20:17:22.405Z,66.05
2018-10-11T20:19:58.520Z,65.68
2018-10-11T20:22:34.809Z,66.41
2018-10-11T20:25:10.667Z,65.34
2018-10-11T20:27:46.645Z,66.91
2018-10-11T20:30:22.832Z,63.53
2018-10-11T20:32:58.887Z,64.17
2018-10-11T20:35:34.856Z,64.63
2018-10-11T20:38:16.182Z,66.23
2018-10-11T20:40:51.859Z,67.33
2018-10-11T20:43:27.731Z,65.25
2018-10-11T20:46:03.738Z,66.56
2018-10-11T20:48:39.637Z,67.06
2018-10-11T20:51:15.904Z,65.71
2018-10-11T20:53:52.021Z,66.66
2018-10-11T20:56:27.981Z,67.63
2018-10-11T20:59:03.835Z,68.53
2018-10-11T21:01:39.736Z,69.69
2018-10-11T21:04:15.727Z,71.37
2018-10-11T21:06:51.818Z,73.04
2018-10-11T21:16:24.295Z,76.21
2018-10-11T21:19:00.196Z,79.33
2018-10-11T21:21:36.208Z,79.31
2018-10-11T21:24:12.121Z,79.50
2018-10-11T21:26:48.039Z,78.16
2018-10-11T21:29:26.731Z,79.70
2018-10-11T21:32:02.644Z,81.06
2018-10-11T21:34:38.629Z,80.90
2018-10-11T21:37:14.853Z,81.66
2018-10-11T21:39:50.770Z,81.57
2018-10-11T21:42:26.648Z,82.45
2018-10-11T21:45:02.397Z,82.85
2018-10-11T21:47:38.525Z,83.91
2018-10-11T21:50:14.580Z,83.52
2018-10-11T21:52:50.547Z,84.53
2018-10-11T21:55:26.607Z,84.38
2018-10-11T21:58:02.625Z,85.33
2018-10-11T22:00:43.685Z,85.61
2018-10-11T22:03:19.624Z,84.82
2018-10-11T22:05:55.650Z,82.68
2018-10-11T22:08:31.727Z,81.10
2018-10-11T22:11:07.717Z,82.43
2018-10-11T22:13:43.697Z,84.27
2018-10-11T22:16:19.907Z,82.53
2018-10-11T22:18:55.735Z,81.33
2018-10-11T22:21:31.632Z,80.98
2018-10-11T22:24:07.786Z,82.06
2018-10-11T22:26:43.773Z,82.41
2018-10-11T22:29:19.523Z,83.28
2018-10-11T22:31:55.270Z,83.66
2018-10-11T22:34:31.167Z,84.15
2018-10-11T22:37:07.051Z,84.99
2018-10-11T22:39:43.330Z,85.21
2018-10-11T22:42:19.213Z,86.95
2018-10-11T22:44:55.178Z,86.61
2018-10-11T22:47:30.890Z,87.71
2018-10-11T22:50:07.222Z,88.40
2018-10-11T22:52:42.973Z,87.20
2018-10-11T22:55:18.845Z,84.67
2018-10-11T22:57:55.882Z,85.47
2018-10-11T23:00:31.789Z,85.52
2018-10-11T23:03:07.692Z,84.51
2018-10-11T23:05:43.546Z,81.69
2018-10-11T23:08:19.304Z,82.09
2018-10-11T23:10:55.777Z,80.05
2018-10-11T23:13:31.557Z,81.19
2018-10-11T23:16:07.608Z,80.63
2018-10-11T23:18:43.341Z,81.99
2018-10-11T23:21:19.248Z,80.53
2018-10-11T23:23:55.125Z,81.55
2018-10-11T23:26:31.070Z,81.25
2018-10-11T23:29:07.039Z,80.99
2018-10-11T23:31:42.893Z,82.50
2018-10-11T23:34:18.877Z,80.09
2018-10-11T23:36:54.805Z,81.75
2018-10-11T23:39:33.811Z,80.12
2018-10-11T23:42:09.695Z,80.70
2018-10-11T23:44:45.544Z,80.15
2018-10-11T23:47:21.417Z,80.90
2018-10-11T23:49:57.419Z,81.65
2018-10-11T23:52:33.422Z,85.68
2018-10-11T23:55:10.065Z,86.58
2018-10-11T23:57:45.837Z,85.69
